Address 0xc5e9ecbc15e0df76b21164545e05d4526bc8f32e

 
 
Txn Hash
Block
From
To
Value [Txn Fee]
0x9fa4e572e63b6fd2992214bc9bdba712b90955a4861235fdc2bf0da9eeffd1e597204162021-08-03 18:43:305 mins ago0xc5e9ecbc15e0df76b21164545e05d4526bc8f32eOUT 0x74d8fa1d4528351df94149f582d1beb583abcbfe0 BNB0.00018425
0x584fb394fe89150dccf5c23d193af18ded37ff665e35799aefac5fb2d5fb43b397202272021-08-03 18:34:0114 mins ago0xc5e9ecbc15e0df76b21164545e05d4526bc8f32eOUT 0xe0d990977aa819a329c6e73af7bd6ff65bb282380 BNB0.0001785255
0xd9496a55873dd50fdc1e7d92dbd15c1ebe408a875d5d4e0326218aa43752cd5d97199572021-08-03 18:19:3129 mins ago0xc5e9ecbc15e0df76b21164545e05d4526bc8f32eOUT 0xfce69c8389ec3d6815cd10f57a96d779f72eb7ab0 BNB0.00044549133
0x22db3d9771dc3a8f25a634118c893af5b3d0929465bdbf3b03f71caf2438a63c97197392021-08-03 18:08:2640 mins ago0xc5e9ecbc15e0df76b21164545e05d4526bc8f32eOUT 0x74d8fa1d4528351df94149f582d1beb583abcbfe0 BNB0.0001879401
0x9b99c0ac204c17ad636eda94d79362c4acb6033a83f4fcbe498f34a987d7eb5e97196582021-08-03 18:04:2344 mins ago0xc5e9ecbc15e0df76b21164545e05d4526bc8f32eOUT 0x74d8fa1d4528351df94149f582d1beb583abcbfe0 BNB0.00018431
0x17307dcfe50018e67f2255db04e683f6bd1405d134a8f14933d1ad26e1a4e80b97196392021-08-03 18:03:2645 mins ago0xc5e9ecbc15e0df76b21164545e05d4526bc8f32eOUT 0xdb69c82fc6573b49272777d090211891673fdac70 BNB0.00151326
0xa5a935ff838c4213eed24150b1a8a41ae8e34be8839022a0b4e947f1d1fa609297193242021-08-03 17:47:251 hr 1 min ago0xc5e9ecbc15e0df76b21164545e05d4526bc8f32eOUT 0x74d8fa1d4528351df94149f582d1beb583abcbfe0 BNB0.00019313
0x149915dd6c4031a8111d6e136a757c31c7ad83546630026c808b13ff7bb9308b97192622021-08-03 17:44:191 hr 4 mins ago0xc5e9ecbc15e0df76b21164545e05d4526bc8f32eOUT 0xf67ab218f01e2d47dbc63d7bd94b25b86f0504c80 BNB0.000251303
0x89a33aa9784bfc6a44a9488658b549d121f1966b77e7144a2f6d0a06795fc10097189392021-08-03 17:28:031 hr 20 mins ago0xc5e9ecbc15e0df76b21164545e05d4526bc8f32eOUT 0x74d8fa1d4528351df94149f582d1beb583abcbfe0 BNB0.00046029
0xca3d4bf45c2d7467ca497d935cad7226c7296c46e03034b631e19be4ba1e985897189022021-08-03 17:26:121 hr 22 mins ago0xc5e9ecbc15e0df76b21164545e05d4526bc8f32eOUT 0x74d8fa1d4528351df94149f582d1beb583abcbfe0 BNB0.000184255
0x0d2f534557f5983f6667752e62e2f9345981eee73d1926984e41fbc53f51b0a997188832021-08-03 17:25:151 hr 23 mins ago0xc5e9ecbc15e0df76b21164545e05d4526bc8f32eOUT 0xdb69c82fc6573b49272777d090211891673fdac70 BNB0.00029439198
0xfaba6d6e2f933cd1b6d51c64ea7f7f8482c9f6e74a0224bbc11d62acffcb71ef97188262021-08-03 17:22:241 hr 26 mins ago0xc5e9ecbc15e0df76b21164545e05d4526bc8f32eOUT 0xbd2ec79f2a467813efefe02b8b195ed8187889060 BNB0.000203325
0x65226bf335804231029bbae132b9ec4ee79a2d1f2fd87fe9a9eb7065932454a097188102021-08-03 17:21:361 hr 27 mins ago0xc5e9ecbc15e0df76b21164545e05d4526bc8f32eOUT 0x67b3b93d913b85b7a44931b53121bdde1ff94ef50 BNB0.00019313
0xcbd42af259ba522e6c5f67732c9fb9b274409cb6873de2e444c760f0c81de78497186982021-08-03 17:15:531 hr 32 mins ago0xc5e9ecbc15e0df76b21164545e05d4526bc8f32eOUT 0x74d8fa1d4528351df94149f582d1beb583abcbfe0 BNB0.0002432034
0x95493a68f914d9ca79fcbfa099db51025175f88fcb9970fb63122041830575fa97186842021-08-03 17:15:091 hr 33 mins ago0xc5e9ecbc15e0df76b21164545e05d4526bc8f32eOUT 0x6212df9c2efe54c1a72c6b5ebbbeb1c0af12ba3a0 BNB0.00018431
0xbeec5b843dfeb1f8b4dad9c24cf95eabf73ffbfc8550958bdb2dc9d8ce0b113697186622021-08-03 17:14:031 hr 34 mins ago0xc5e9ecbc15e0df76b21164545e05d4526bc8f32eOUT 0xfeb6864f8cf53e9d4e884f30be63538b0949105e0 BNB0.0002433618
0xc15d184372ef65a691dc448b4d46d77e64606334af279d77c07cfe02e70fc48097185702021-08-03 17:09:221 hr 39 mins ago0xc5e9ecbc15e0df76b21164545e05d4526bc8f32eOUT 0x74cfcd9bc69b4a856ccf941b31fad9e3fac9107d0 BNB0.000184245
0xa37a3419defd3d562a81d872a8563aba7507192c1f36e0d559bde01398783bfa97185472021-08-03 17:08:051 hr 40 mins ago0xc5e9ecbc15e0df76b21164545e05d4526bc8f32eOUT 0x6212df9c2efe54c1a72c6b5ebbbeb1c0af12ba3a0 BNB0.00021215
0x1d405802efcc68518d045f37d70f16c0c98d94084976952b2167a03195ce33dd97184162021-08-03 17:01:311 hr 47 mins ago0xc5e9ecbc15e0df76b21164545e05d4526bc8f32eOUT 0x74d8fa1d4528351df94149f582d1beb583abcbfe0 BNB0.00349905
0x750e2eb2c463f5c59ecc2d200f7de3531b83b9a7e95c3b2754100215c64c7ed597182742021-08-03 16:53:221 hr 55 mins ago0xc5e9ecbc15e0df76b21164545e05d4526bc8f32eOUT 0xbd2ec79f2a467813efefe02b8b195ed8187889060 BNB0.00162411
0xb42b88dc380e869c71b7ecd7c17ca6350f7b224ed781e883331672fe1a029b7597179492021-08-03 16:36:352 hrs 12 mins ago0xc5e9ecbc15e0df76b21164545e05d4526bc8f32eOUT 0x74d8fa1d4528351df94149f582d1beb583abcbfe0 BNB0.0002211
0x1ba700ed7edd23ea0476ab072c78d704dcf9d9f11898714790b0a35561786daf97178822021-08-03 16:33:142 hrs 15 mins ago0xc5e9ecbc15e0df76b21164545e05d4526bc8f32eOUT 0x6212df9c2efe54c1a72c6b5ebbbeb1c0af12ba3a0 BNB0.0001785255
0x74e0d36cbe69e6bd8576709ec4b248ce7fee40d715d201655b2d2cf39b234e3a97175472021-08-03 16:16:162 hrs 32 mins ago0xc5e9ecbc15e0df76b21164545e05d4526bc8f32eOUT 0x0c2c7de6c0cc1945dc0d0042d074dec960bde0180 BNB0.0002253741
0x68f7b0fb507b47fe83eab76d9bb574af734149d88f9653c38b1cb76ddbb05f6d97172222021-08-03 15:59:572 hrs 48 mins ago0xc5e9ecbc15e0df76b21164545e05d4526bc8f32eOUT 0x4638e64d3311ed302482b74ceddff760b34799710 BNB0.000230025
0x347000b1c30992593cbc1086a89bcc2093ce00e01a9523824a25678498510ed397171982021-08-03 15:58:432 hrs 49 mins ago0xc5e9ecbc15e0df76b21164545e05d4526bc8f32eOUT 0x74d8fa1d4528351df94149f582d1beb583abcbfe0 BNB0.000230085
[ Download CSV Export 
Parent Txn Hash Block From To Value
Loading

Contract Name:
0 BNB

Compiler Version
0

Optimization Enabled:
0 BNB

Other Settings:
-NA-
Block Transaction Gas Used Reward
Age Block Fee Address BC Fee Address Voting Power Jailed Incoming
Block Uncle Number Difficulty Gas Used Reward
Loading
Loading
Make sure to use the "Vote Down" button for any spammy posts, and the "Vote Up" for interesting conversations.